Rhapsody Of The Seas — C6UA2 — position and weather

sailwx.info

Track history (hours):
 
Tides and Currents Weather Stations Pressure Air Temp Water Temp Dewpoint Dewpoint Depression Visibility Wind Speed Wind Dir Waves Ship Positions

Rhapsody Of The Seas

Last reported at 2018-Jun-24 22:00 UTC. Time now 2018-Jun-25 00:40 UTC.
Position N 42°18' E 018°00'.

Type: Passenger vessel. MMSI: 311805000.

Wind from 070 at 16 knots

Barometer 1016.9 mb
Air temperature 22.8 ° C
Visibility: greater than 5.4 NM
Dewpoint 16.7 ° C

Date/timePositionNaut miles runAvg speedWind from/ knotsBaromVisibWave heightAir tempDewpointWater temp
2018-Jun-24 22:00N 42°18' E 018°00'186 8.1 070 / 161016.9 5.4 22.816.7
2018-Jun-23 23:00N 43°48' E 014°18'6620.8 020 / 81022.9 21.018.0
2018-Jun-23 19:49N 44°43' E 013°28'620.5
2018-Jun-23 19:30N 44°49' E 013°23'1020.4
2018-Jun-23 19:00N 44°57' E 013°15'1020.1
2018-Jun-23 18:30N 45°04' E 013°04'1020.0
2018-Jun-23 18:00N 45°10' E 012°53'1019.7
2018-Jun-23 17:30N 45°16' E 012°42'1019.5
2018-Jun-23 17:00N 45°22' E 012°31'712.7
2018-Jun-23 16:29N 45°26' E 012°24'3 5.1
2018-Jun-23 15:58N 45°26' E 012°20'1 2.4
2018-Jun-23 15:30N 45°26' E 012°19'0 0.0
2018-Jun-23 15:00N 45°26' E 012°19'0 0.0
2018-Jun-23 14:30N 45°26' E 012°19'0 0.0
2018-Jun-23 14:00N 45°26' E 012°19'0 0.0
2018-Jun-23 13:27N 45°26' E 012°19'0 0.0
2018-Jun-23 13:00N 45°26' E 012°19'0 0.0
2018-Jun-23 12:30N 45°26' E 012°19'0 0.0
2018-Jun-23 12:00N 45°26' E 012°19'0 0.0
2018-Jun-23 11:30N 45°26' E 012°19'0 0.0
2018-Jun-23 11:00N 45°26' E 012°19'0 0.0
2018-Jun-23 10:30N 45°26' E 012°19'0 0.0
2018-Jun-23 10:00N 45°26' E 012°19'0 0.0
2018-Jun-23 09:30N 45°26' E 012°19'0 0.0
2018-Jun-23 09:00N 45°26' E 012°19'0 0.0
2018-Jun-23 08:30N 45°26' E 012°19'0 0.0
2018-Jun-23 08:00N 45°26' E 012°19'0 0.0
2018-Jun-23 07:30N 45°26' E 012°19'0 0.0
2018-Jun-23 07:00N 45°26' E 012°19'0 0.0
2018-Jun-23 06:30N 45°26' E 012°19'0 0.0
2018-Jun-23 06:00N 45°26' E 012°19'0 0.0
2018-Jun-23 05:30N 45°26' E 012°19'0 0.0
2018-Jun-23 05:00N 45°26' E 012°19'0 0.0
2018-Jun-23 04:30N 45°26' E 012°19'1 1.6
2018-Jun-23 04:00N 45°26' E 012°20'2 4.9
2018-Jun-23 03:30N 45°26' E 012°23'5 8.7
2018-Jun-23 02:58N 45°24' E 012°29'715.2
2018-Jun-23 02:30N 45°20' E 012°37'815.3
2018-Jun-23 02:00N 45°14' E 012°45'815.3
2018-Jun-23 01:30N 45°10' E 012°54'815.4
2018-Jun-23 01:00N 45°06' E 013°02'815.4
2018-Jun-23 00:30N 45°01' E 013°11'815.4
2018-Jun-23 00:00N 44°57' E 013°20'816.7
2018-Jun-22 23:30N 44°50' E 013°27'816.5
2018-Jun-22 23:00N 44°43' E 013°33'816.5
2018-Jun-22 22:30N 44°36' E 013°40'1716.4
2018-Jun-22 21:28N 44°22' E 013°54'35917.5
2018-Jun-22 01:00N 39°48' E 019°06'257 7.8 260 / 111017.9 5.4 24.019.6
2018-Jun-20 16:07N 37°28' E 023°43'216.6
2018-Jun-20 16:00N 37°30' E 023°43'816.6
2018-Jun-20 15:30N 37°39' E 023°43'817.0
2018-Jun-20 15:00N 37°46' E 023°39'816.4
2018-Jun-20 14:30N 37°54' E 023°37'2 4.6
2018-Jun-20 13:59N 37°56' E 023°38'0 0.0
2018-Jun-20 13:29N 37°56' E 023°38'0 0.0
2018-Jun-20 12:59N 37°56' E 023°38'0 0.0
2018-Jun-20 12:29N 37°56' E 023°38'0 0.0
2018-Jun-20 11:59N 37°56' E 023°38'0 0.0
2018-Jun-20 11:29N 37°56' E 023°38'0 0.0
2018-Jun-20 10:59N 37°56' E 023°38'0 0.0
2018-Jun-20 10:29N 37°56' E 023°38'0 0.0
2018-Jun-20 09:59N 37°56' E 023°38'0 0.0
2018-Jun-20 09:29N 37°56' E 023°38'0 0.0
2018-Jun-20 08:59N 37°56' E 023°38'0 0.0
2018-Jun-20 08:29N 37°56' E 023°38'0 0.0
2018-Jun-20 07:59N 37°56' E 023°38'0 0.0
2018-Jun-20 07:29N 37°56' E 023°38'0 0.0
2018-Jun-20 06:59N 37°56' E 023°38'0 0.0
2018-Jun-20 06:29N 37°56' E 023°38'0 0.0
2018-Jun-20 05:59N 37°56' E 023°38'0 0.0
2018-Jun-20 05:29N 37°56' E 023°38'0 0.0
2018-Jun-20 04:59N 37°56' E 023°38'0 0.0
2018-Jun-20 04:29N 37°56' E 023°38'0 0.0
2018-Jun-20 03:59N 37°56' E 023°38'0 0.0
2018-Jun-20 03:29N 37°56' E 023°38'0 0.0
2018-Jun-20 02:59N 37°56' E 023°38'0 0.0
2018-Jun-20 02:29N 37°56' E 023°38'0 0.1
2018-Jun-20 02:00N 37°56' E 023°38'2 3.9
2018-Jun-20 01:30N 37°55' E 023°37'612.8
2018-Jun-20 01:01N 37°49' E 023°40'714.5
2018-Jun-20 00:30N 37°43' E 023°44'714.1
2018-Jun-20 00:01N 37°36' E 023°47'12514.0
2018-Jun-19 15:04N 35°33' E 024°15'  
2018-Jun-15 19:15N 44°46' E 013°25'416.6
2018-Jun-15 18:59N 44°50' E 013°22'816.3
2018-Jun-15 18:31N 44°57' E 013°16'816.4
2018-Jun-15 18:00N 45°02' E 013°07'816.5
2018-Jun-15 17:31N 45°07' E 012°58'916.6
2018-Jun-15 16:59N 45°12' E 012°48'816.6
2018-Jun-15 16:31N 45°18' E 012°40'816.4
2018-Jun-15 16:00N 45°23' E 012°30'611.7
2018-Jun-15 15:30N 45°26' E 012°24'3 5.0
2018-Jun-15 15:00N 45°26' E 012°20'1 2.2
2018-Jun-15 14:29N 45°26' E 012°19'0 0.0
2018-Jun-15 13:56N 45°26' E 012°19'0 0.0
2018-Jun-15 13:26N 45°26' E 012°19'0 0.0
2018-Jun-15 12:59N 45°26' E 012°19'0 0.0
2018-Jun-15 12:29N 45°26' E 012°19'0 0.0
2018-Jun-15 11:59N 45°26' E 012°19'0 0.0
2018-Jun-15 11:29N 45°26' E 012°19'0 0.0
2018-Jun-15 10:59N 45°26' E 012°19'0 0.0
2018-Jun-15 10:23N 45°26' E 012°19'0 0.0
2018-Jun-15 09:59N 45°26' E 012°19'0 0.0
2018-Jun-15 09:29N 45°26' E 012°19'0 0.0
2018-Jun-15 08:53N 45°26' E 012°19'0 0.0
2018-Jun-15 08:29N 45°26' E 012°19'0 0.0
2018-Jun-15 07:59N 45°26' E 012°19'0 0.0
2018-Jun-15 07:26N 45°26' E 012°19'0 0.0
2018-Jun-15 06:50N 45°26' E 012°19'0 0.0
2018-Jun-15 06:23N 45°26' E 012°19'0 0.0
2018-Jun-15 05:59N 45°26' E 012°19'0 0.0
2018-Jun-15 05:29N 45°26' E 012°19'0 0.0
2018-Jun-15 04:59N 45°26' E 012°19'0 0.7
2018-Jun-15 04:30N 45°26' E 012°18'2 4.6
2018-Jun-15 04:00N 45°25' E 012°22'3 6.6
2018-Jun-15 03:30N 45°25' E 012°26'510.0
2018-Jun-15 03:00N 45°22' E 012°32'714.9
2018-Jun-15 02:30N 45°17' E 012°40'815.3
2018-Jun-15 02:01N 45°12' E 012°48'815.3
2018-Jun-15 01:31N 45°08' E 012°57'815.4
2018-Jun-15 00:58N 45°04' E 013°07'715.6
2018-Jun-15 00:31N 44°60' E 013°16'815.5
2018-Jun-15 00:00N 44°54' E 013°23'816.7
2018-Jun-14 23:31N 44°47' E 013°30'916.9
2018-Jun-14 23:00N 44°40' E 013°37'1110.7
2018-Jun-14 22:00N 44°30' E 013°42'   040 / 441011.810.8 21.0
Track history (hours):
 
Tides and Currents Weather Stations Pressure Air Temp Water Temp Dewpoint Dewpoint Depression Visibility Wind Speed Wind Dir Waves Ship Positions

Rhapsody Of The Seas

Last reported at 2018-Jun-24 22:00 UTC. Time now 2018-Jun-25 00:40 UTC.
Position N 42°18' E 018°00'.

Type: Passenger vessel. MMSI: 311805000.

Wind from 070 at 16 knots

Barometer 1016.9 mb
Air temperature 22.8 ° C
Visibility: greater than 5.4 NM
Dewpoint 16.7 ° C

Date/timePositionNaut miles runAvg speedWind from/ knotsBaromVisibWave heightAir tempDewpointWater temp
2018-Jun-24 22:00N 42°18' E 018°00'186 8.1 070 / 161016.9 5.4 22.816.7
2018-Jun-23 23:00N 43°48' E 014°18'6620.8 020 / 81022.9 21.018.0
2018-Jun-23 19:49N 44°43' E 013°28'620.5
2018-Jun-23 19:30N 44°49' E 013°23'1020.4
2018-Jun-23 19:00N 44°57' E 013°15'1020.1
2018-Jun-23 18:30N 45°04' E 013°04'1020.0
2018-Jun-23 18:00N 45°10' E 012°53'1019.7
2018-Jun-23 17:30N 45°16' E 012°42'1019.5
2018-Jun-23 17:00N 45°22' E 012°31'712.7
2018-Jun-23 16:29N 45°26' E 012°24'3 5.1
2018-Jun-23 15:58N 45°26' E 012°20'1 2.4
2018-Jun-23 15:30N 45°26' E 012°19'0 0.0
2018-Jun-23 15:00N 45°26' E 012°19'0 0.0
2018-Jun-23 14:30N 45°26' E 012°19'0 0.0
2018-Jun-23 14:00N 45°26' E 012°19'0 0.0
2018-Jun-23 13:27N 45°26' E 012°19'0 0.0
2018-Jun-23 13:00N 45°26' E 012°19'0 0.0
2018-Jun-23 12:30N 45°26' E 012°19'0 0.0
2018-Jun-23 12:00N 45°26' E 012°19'0 0.0
2018-Jun-23 11:30N 45°26' E 012°19'0 0.0
2018-Jun-23 11:00N 45°26' E 012°19'0 0.0
2018-Jun-23 10:30N 45°26' E 012°19'0 0.0
2018-Jun-23 10:00N 45°26' E 012°19'0 0.0
2018-Jun-23 09:30N 45°26' E 012°19'0 0.0
2018-Jun-23 09:00N 45°26' E 012°19'0 0.0
2018-Jun-23 08:30N 45°26' E 012°19'0 0.0
2018-Jun-23 08:00N 45°26' E 012°19'0 0.0
2018-Jun-23 07:30N 45°26' E 012°19'0 0.0
2018-Jun-23 07:00N 45°26' E 012°19'0 0.0
2018-Jun-23 06:30N 45°26' E 012°19'0 0.0
2018-Jun-23 06:00N 45°26' E 012°19'0 0.0
2018-Jun-23 05:30N 45°26' E 012°19'0 0.0
2018-Jun-23 05:00N 45°26' E 012°19'0 0.0
2018-Jun-23 04:30N 45°26' E 012°19'1 1.6
2018-Jun-23 04:00N 45°26' E 012°20'2 4.9
2018-Jun-23 03:30N 45°26' E 012°23'5 8.7
2018-Jun-23 02:58N 45°24' E 012°29'715.2
2018-Jun-23 02:30N 45°20' E 012°37'815.3
2018-Jun-23 02:00N 45°14' E 012°45'815.3
2018-Jun-23 01:30N 45°10' E 012°54'815.4
2018-Jun-23 01:00N 45°06' E 013°02'815.4
2018-Jun-23 00:30N 45°01' E 013°11'815.4
2018-Jun-23 00:00N 44°57' E 013°20'816.7
2018-Jun-22 23:30N 44°50' E 013°27'816.5
2018-Jun-22 23:00N 44°43' E 013°33'816.5
2018-Jun-22 22:30N 44°36' E 013°40'1716.4
2018-Jun-22 21:28N 44°22' E 013°54'35917.5
2018-Jun-22 01:00N 39°48' E 019°06'257 7.8 260 / 111017.9 5.4 24.019.6
2018-Jun-20 16:07N 37°28' E 023°43'216.6
2018-Jun-20 16:00N 37°30' E 023°43'816.6
2018-Jun-20 15:30N 37°39' E 023°43'817.0
2018-Jun-20 15:00N 37°46' E 023°39'816.4
2018-Jun-20 14:30N 37°54' E 023°37'2 4.6
2018-Jun-20 13:59N 37°56' E 023°38'0 0.0
2018-Jun-20 13:29N 37°56' E 023°38'0 0.0
2018-Jun-20 12:59N 37°56' E 023°38'0 0.0
2018-Jun-20 12:29N 37°56' E 023°38'0 0.0
2018-Jun-20 11:59N 37°56' E 023°38'0 0.0
2018-Jun-20 11:29N 37°56' E 023°38'0 0.0
2018-Jun-20 10:59N 37°56' E 023°38'0 0.0
2018-Jun-20 10:29N 37°56' E 023°38'0 0.0
2018-Jun-20 09:59N 37°56' E 023°38'0 0.0
2018-Jun-20 09:29N 37°56' E 023°38'0 0.0
2018-Jun-20 08:59N 37°56' E 023°38'0 0.0
2018-Jun-20 08:29N 37°56' E 023°38'0 0.0
2018-Jun-20 07:59N 37°56' E 023°38'0 0.0
2018-Jun-20 07:29N 37°56' E 023°38'0 0.0
2018-Jun-20 06:59N 37°56' E 023°38'0 0.0
2018-Jun-20 06:29N 37°56' E 023°38'0 0.0
2018-Jun-20 05:59N 37°56' E 023°38'0 0.0
2018-Jun-20 05:29N 37°56' E 023°38'0 0.0
2018-Jun-20 04:59N 37°56' E 023°38'0 0.0
2018-Jun-20 04:29N 37°56' E 023°38'0 0.0
2018-Jun-20 03:59N 37°56' E 023°38'0 0.0
2018-Jun-20 03:29N 37°56' E 023°38'0 0.0
2018-Jun-20 02:59N 37°56' E 023°38'0 0.0
2018-Jun-20 02:29N 37°56' E 023°38'0 0.1
2018-Jun-20 02:00N 37°56' E 023°38'2 3.9
2018-Jun-20 01:30N 37°55' E 023°37'612.8
2018-Jun-20 01:01N 37°49' E 023°40'714.5
2018-Jun-20 00:30N 37°43' E 023°44'714.1
2018-Jun-20 00:01N 37°36' E 023°47'12514.0
2018-Jun-19 15:04N 35°33' E 024°15'  
2018-Jun-15 19:15N 44°46' E 013°25'416.6
2018-Jun-15 18:59N 44°50' E 013°22'816.3
2018-Jun-15 18:31N 44°57' E 013°16'816.4
2018-Jun-15 18:00N 45°02' E 013°07'816.5
2018-Jun-15 17:31N 45°07' E 012°58'916.6
2018-Jun-15 16:59N 45°12' E 012°48'816.6
2018-Jun-15 16:31N 45°18' E 012°40'816.4
2018-Jun-15 16:00N 45°23' E 012°30'611.7
2018-Jun-15 15:30N 45°26' E 012°24'3 5.0
2018-Jun-15 15:00N 45°26' E 012°20'1 2.2
2018-Jun-15 14:29N 45°26' E 012°19'0 0.0
2018-Jun-15 13:56N 45°26' E 012°19'0 0.0
2018-Jun-15 13:26N 45°26' E 012°19'0 0.0
2018-Jun-15 12:59N 45°26' E 012°19'0 0.0
2018-Jun-15 12:29N 45°26' E 012°19'0 0.0
2018-Jun-15 11:59N 45°26' E 012°19'0 0.0
2018-Jun-15 11:29N 45°26' E 012°19'0 0.0
2018-Jun-15 10:59N 45°26' E 012°19'0 0.0
2018-Jun-15 10:23N 45°26' E 012°19'0 0.0
2018-Jun-15 09:59N 45°26' E 012°19'0 0.0
2018-Jun-15 09:29N 45°26' E 012°19'0 0.0
2018-Jun-15 08:53N 45°26' E 012°19'0 0.0
2018-Jun-15 08:29N 45°26' E 012°19'0 0.0
2018-Jun-15 07:59N 45°26' E 012°19'0 0.0
2018-Jun-15 07:26N 45°26' E 012°19'0 0.0
2018-Jun-15 06:50N 45°26' E 012°19'0 0.0
2018-Jun-15 06:23N 45°26' E 012°19'0 0.0
2018-Jun-15 05:59N 45°26' E 012°19'0 0.0
2018-Jun-15 05:29N 45°26' E 012°19'0 0.0
2018-Jun-15 04:59N 45°26' E 012°19'0 0.7
2018-Jun-15 04:30N 45°26' E 012°18'2 4.6
2018-Jun-15 04:00N 45°25' E 012°22'3 6.6
2018-Jun-15 03:30N 45°25' E 012°26'510.0
2018-Jun-15 03:00N 45°22' E 012°32'714.9
2018-Jun-15 02:30N 45°17' E 012°40'815.3
2018-Jun-15 02:01N 45°12' E 012°48'815.3
2018-Jun-15 01:31N 45°08' E 012°57'815.4
2018-Jun-15 00:58N 45°04' E 013°07'715.6
2018-Jun-15 00:31N 44°60' E 013°16'815.5
2018-Jun-15 00:00N 44°54' E 013°23'816.7
2018-Jun-14 23:31N 44°47' E 013°30'916.9
2018-Jun-14 23:00N 44°40' E 013°37'1110.7
2018-Jun-14 22:00N 44°30' E 013°42'   040 / 441011.810.8 21.0

Dump ship's entire track history